Terminal Aerodrome Forecast
Issued by NWS

Home | Current Version | Previous Version | Graphics & Text | Print | Product List | Glossary On
Versions: 1 2 3 4 5 6 7 8 9 10 11 12 13 14 15 16 17 18
000
FTUS43 KFGF 181126
TAFBJI
TAF
KBJI 181126Z 1812/1912 11007KT 6SM -SN OVC040
     FM181300 10008KT 1SM -SN OVC025
     FM181500 09007KT 1/2SM SN OVC020
     FM181800 07009KT P6SM OVC025
      TEMPO 1818/1819 -SN OVC015
     FM181900 06010KT P6SM OVC025
     FM182100 03011KT P6SM OVC030
     FM190500 36008KT P6SM BKN050=

USA.gov is the U.S. government's official web portal to all federal, state and local government web resources and services.